TAF KAPA
KAPA 072359Z 0800/0824 30008KT P6SM FEW090 FEW220 FM080400 19008KT P6SM FEW120 SCT220 FM081900 24007KT P6SM FEW120 BKN220 FM082100 32008KT P6SM FEW120 BKN220=
METAR KAPA
WC KAPA
WS KAPA
WV KAPA